Edinburg, TX

9:41 PM CDT on September 20, 2017 (GMT -0500)
Edinburg

Weather History for KEBG - April, 2013

Change the Weather History Date:

Thursday, April 18, 2013

  Actual Average (KMFE) Record (KMFE)
Temperature  
Mean Temperature 81 °F -  
Max Temperature 96 °F 84 °F 98 °F (1953)
Min Temperature 65 °F 65 °F 53 °F (2001)
Cooling Degree Days 16    
Growing Degree Days 31 (Base 50)    
Moisture  
Dew Point 63 °F    
Average Humidity 56    
Maximum Humidity 76    
Minimum Humidity 32    
Precipitation  
Precipitation 0.00 in - - ()
Sea Level Pressure  
Sea Level Pressure 29.71 in    
Wind  
Wind Speed 17 mph (East)    
Max Wind Speed 30 mph    
Max Gust Speed 38 mph    
Visibility 5 miles    
Events      
Averages and records for this station are not official NWS values.
T = Trace of Precipitation, MM = Missing Value Source: NWS Daily Summary

Daily Weather History Graph

Daily Weather History Graph

Search for Another Location

Airport or City:

Trip Planner

Search our weather history database for the weather conditions in past years. The results will help you decide how hot, cold, wet, or windy it might be!

Date:

Astronomy

Apr. 18, 2013 Rise Set
Actual Time 7:05 AM CDT 7:58 PM CDT
Civil Twilight 6:42 AM CDT 8:21 PM CDT
Nautical Twilight 6:14 AM CDT 8:49 PM CDT
Astronomical Twilight 5:45 AM CDT 9:18 PM CDT
Moon 1:24 PM CDT (4/18) 2:06 AM CDT (4/18)
Length of Visible Light 13h 39m
Length of Day
12h 52m
First Quarter, 52% of the Moon is Illuminated
Apr 18
First Quarter
Apr 25
Full
May 2
Last Quarter
May 9
New
May 17
First Quarter

Hourly Weather History & Observations

Time (CDT) Temp. Heat Index Dew Point Humidity Pressure Visibility Wind Dir Wind Speed Gust Speed Precip Events Conditions
12:15 AM 80.2 °F 84.0 °F 71.8 °F 75% 29.68 in 5.0 mi SSE 15.0 mph 26.5 mph N/A   Haze
12:35 AM 80.1 °F 83.7 °F 71.6 °F 75% 29.67 in 5.0 mi SSE 19.6 mph - N/A   Haze
12:55 AM 80.2 °F 84.0 °F 71.6 °F 75% 29.66 in 5.0 mi SSE 16.1 mph 26.5 mph N/A   Haze
1:15 AM 80.2 °F 84.0 °F 71.6 °F 75% 29.65 in 5.0 mi SSE 19.6 mph 24.2 mph N/A   Haze
1:35 AM 80.1 °F 83.7 °F 71.4 °F 75% 29.66 in 5.0 mi SSE 13.8 mph 23.0 mph N/A   Haze
1:55 AM 80.2 °F 83.9 °F 71.2 °F 74% 29.66 in 5.0 mi SSE 18.4 mph 21.9 mph N/A   Haze
2:15 AM 80.2 °F 83.7 °F 70.7 °F 73% 29.66 in 5.0 mi SSE 17.3 mph 23.0 mph N/A   Haze
2:35 AM 80.2 °F 83.7 °F 70.7 °F 73% 29.66 in 5.0 mi SSE 15.0 mph 23.0 mph N/A   Haze
2:55 AM 80.2 °F 83.7 °F 70.7 °F 73% 29.65 in 5.0 mi SSE 17.3 mph 24.2 mph N/A   Haze
3:15 AM 80.1 °F 83.4 °F 70.9 °F 73% 29.64 in 5.0 mi SSE 13.8 mph - N/A   Haze
3:35 AM 80.1 °F 83.6 °F 71.1 °F 74% 29.64 in 5.0 mi SSE 15.0 mph - N/A   Haze
3:55 AM 79.9 °F - 71.1 °F 74% 29.63 in 5.0 mi SSE 12.7 mph 17.3 mph N/A   Haze
4:35 AM 79.7 °F - 70.9 °F 74% 29.61 in 5.0 mi SSE 15.0 mph 21.9 mph N/A   Haze
4:55 AM 79.3 °F - 70.7 °F 75% 29.60 in 5.0 mi SE 18.4 mph 23.0 mph N/A   Haze
5:15 AM 79.0 °F - 70.7 °F 76% 29.60 in 5.0 mi SSE 13.8 mph 24.2 mph N/A   Haze
5:35 AM 79.2 °F - 70.7 °F 75% 29.60 in 5.0 mi SSE 18.4 mph 23.0 mph N/A   Haze
5:55 AM 79.2 °F - 70.7 °F 75% 29.60 in 5.0 mi SSE 16.1 mph 21.9 mph N/A   Haze
6:15 AM 79.3 °F - 70.7 °F 75% 29.60 in 5.0 mi SSE 17.3 mph - N/A   Haze
6:35 AM 79.3 °F - 70.7 °F 75% 29.60 in 5.0 mi SSE 15.0 mph 25.3 mph N/A   Haze
6:55 AM 79.7 °F - 70.7 °F 74% 29.60 in 5.0 mi SSE 15.0 mph 25.3 mph N/A   Haze
7:15 AM 79.3 °F - 70.5 °F 74% 29.60 in 4.0 mi SSE 16.1 mph 20.7 mph N/A   Haze
7:35 AM 79.7 °F - 70.7 °F 74% 29.61 in 3.0 mi SSE 15.0 mph 19.6 mph N/A   Haze
7:55 AM 79.9 °F - 70.7 °F 73% 29.61 in 4.0 mi SSE 13.8 mph 23.0 mph N/A   Haze
8:15 AM 80.2 °F 83.7 °F 70.9 °F 73% 29.63 in 3.0 mi South 19.6 mph - N/A   Haze
8:35 AM 80.6 °F 84.4 °F 71.1 °F 73% 29.64 in 4.0 mi South 18.4 mph 24.2 mph N/A   Haze
8:55 AM 81.0 °F 84.7 °F 70.9 °F 71% 29.64 in 4.0 mi South 15.0 mph 24.2 mph N/A   Haze
9:15 AM 82.2 °F 86.6 °F 71.1 °F 69% 29.64 in 3.0 mi South 13.8 mph 19.6 mph N/A   Haze
9:35 AM 83.5 °F 88.2 °F 70.9 °F 66% 29.64 in 4.0 mi South 13.8 mph 23.0 mph N/A   Haze
9:55 AM 84.9 °F 89.7 °F 70.5 °F 62% 29.65 in 4.0 mi South 17.3 mph 25.3 mph N/A   Haze
10:35 AM 87.8 °F 91.8 °F 68.9 °F 53% 29.65 in 4.0 mi South 19.6 mph 23.0 mph N/A   Haze
10:55 AM 88.3 °F 92.8 °F 69.1 °F 53% 29.67 in 4.0 mi SSW 11.5 mph 20.7 mph N/A   Haze
11:15 AM 90.5 °F 94.6 °F 68.2 °F 48% 29.68 in 5.0 mi West 11.5 mph 17.3 mph N/A   Haze
11:35 AM 90.7 °F 94.1 °F 67.3 °F 46% 29.69 in 4.0 mi WNW 10.4 mph 17.3 mph N/A   Haze
11:55 AM 91.6 °F 94.8 °F 67.1 °F 44% 29.69 in 5.0 mi NW 12.7 mph 17.3 mph N/A   Haze
12:15 PM 93.6 °F 95.9 °F 65.5 °F 39% 29.69 in 5.0 mi NW 12.7 mph 19.6 mph N/A   Haze
12:55 PM 94.1 °F 95.9 °F 63.9 °F 37% 29.69 in 5.0 mi NNW 15.0 mph 24.2 mph N/A   Haze
1:15 PM 95.0 °F 96.5 °F 63.7 °F 35% 29.69 in 5.0 mi North 18.4 mph 25.3 mph N/A   Haze
1:35 PM 95.0 °F 96.5 °F 63.1 °F 35% 29.68 in 5.0 mi NNW 13.8 mph 23.0 mph N/A   Haze
1:55 PM 95.5 °F 96.9 °F 62.8 °F 34% 29.69 in 5.0 mi NNW 15.0 mph 20.7 mph N/A   Haze
2:15 PM 96.1 °F 97.3 °F 62.6 °F 33% 29.68 in 5.0 mi North 15.0 mph 21.9 mph N/A   Haze
2:35 PM 94.1 °F 96.9 °F 65.8 °F 39% 29.69 in 3.0 mi NNW 24.2 mph 33.4 mph N/A   Haze
2:55 PM 91.2 °F 93.3 °F 65.1 °F 42% 29.70 in 3.0 mi NNW 29.9 mph 34.5 mph N/A   Haze
3:15 PM 89.4 °F 90.2 °F 62.6 °F 41% 29.71 in 4.0 mi North 28.8 mph 35.7 mph N/A   Haze
3:35 PM 87.1 °F 87.2 °F 61.7 °F 42% 29.72 in 3.0 mi North 28.8 mph 35.7 mph N/A   Haze
3:55 PM 85.3 °F 84.8 °F 58.8 °F 41% 29.73 in 2.5 mi North 25.3 mph 35.7 mph N/A   Haze
4:15 PM 83.3 °F 83.1 °F 58.8 °F 43% 29.73 in 2.5 mi North 29.9 mph 36.8 mph N/A   Haze
4:35 PM 82.6 °F 82.3 °F 58.1 °F 43% 29.74 in 4.0 mi North 25.3 mph 34.5 mph N/A   Haze
4:55 PM 80.6 °F 80.9 °F 57.9 °F 46% 29.74 in 3.0 mi North 25.3 mph 38.0 mph N/A   Haze
5:15 PM 79.7 °F - 55.6 °F 43% 29.76 in 5.0 mi North 24.2 mph 34.5 mph N/A   Haze
5:35 PM 79.2 °F - 55.0 °F 43% 29.77 in 7.0 mi North 24.2 mph 29.9 mph N/A   Clear
5:55 PM 78.1 °F - 54.5 °F 44% 29.78 in 5.0 mi NNE 23.0 mph 31.1 mph N/A   Haze
6:15 PM 77.7 °F - 53.4 °F 43% 29.79 in 5.0 mi North 23.0 mph 27.6 mph N/A   Haze
6:35 PM 78.1 °F - 52.0 °F 40% 29.80 in 7.0 mi North 21.9 mph 27.6 mph N/A   Clear
6:55 PM 76.8 °F - 52.5 °F 43% 29.81 in 5.0 mi NNE 20.7 mph - N/A   Haze
7:15 PM 76.6 °F - 50.5 °F 40% 29.82 in 5.0 mi NNE 21.9 mph 29.9 mph N/A   Haze
7:35 PM 75.6 °F - 43.5 °F 32% 29.84 in 7.0 mi North 19.6 mph 27.6 mph N/A   Clear
7:55 PM 74.3 °F - 42.8 °F 32% 29.86 in 7.0 mi NNE 16.1 mph 26.5 mph N/A   Clear
8:15 PM 73.4 °F - 42.6 °F 33% 29.88 in 7.0 mi NNE 18.4 mph 24.2 mph N/A   Clear
8:35 PM 72.5 °F - 42.4 °F 34% 29.90 in 7.0 mi NNE 16.1 mph - N/A   Clear
10:35 PM 68.2 °F - 42.3 °F 39% 29.99 in 7.0 mi NNE 12.7 mph 18.4 mph N/A   Clear
10:55 PM 67.5 °F - 42.8 °F 41% 30.01 in 10.0 mi NNE 11.5 mph - N/A   Clear
11:15 PM 66.7 °F - 43.5 °F 43% 30.03 in 10.0 mi NNE 12.7 mph - N/A   Scattered Clouds
11:35 PM 66.2 °F - 44.2 °F 45% 30.04 in 7.0 mi NNE 13.8 mph 17.3 mph N/A   Scattered Clouds
11:55 PM 65.8 °F - 44.8 °F 47% 30.05 in 7.0 mi NNE 13.8 mph 20.7 mph N/A   Scattered Clouds